Time;durP1;ratioP1;P1;durP2;ratioP2;P2;SDS_P1;SDS_P2;PMS_P1;PMS_P2;Temp;Humidity;BMP_temperature;BMP_pressure;BME280_temperature;BME280_humidity;BME280_pressure;Samples;Min_cycle;Max_cycle;Signal;HPM_P1;HPM_P2
2023/01/06 00:02:11;;;;;;;;;1.00;1.00;;;;;13.49;63.29;101694.25;5009142;28;51390;-64
2023/01/06 00:04:36;;;;;;;;;0.33;0.33;;;;;13.57;63.32;101707.91;5000337;28;45975;-64
2023/01/06 00:07:02;;;;;;;;;0.00;0.00;;;;;13.46;63.26;101699.53;5010494;28;45532;-65
2023/01/06 00:09:27;;;;;;;;;0.00;0.00;;;;;13.51;63.19;101715.78;5015041;28;45655;-64
2023/01/06 00:11:52;;;;;;;;;1.00;1.00;;;;;13.48;63.74;101716.63;5014981;28;50172;-64
2023/01/06 00:14:18;;;;;;;;;0.00;0.00;;;;;13.45;64.42;101728.16;4996539;28;45394;-64
2023/01/06 00:16:43;;;;;;;;;3.67;2.00;;;;;13.49;64.26;101720.19;5014589;28;45282;-64
2023/01/06 00:19:10;;;;;;;;;0.33;0.33;;;;;13.50;64.08;101730.97;5005637;28;45444;-64
2023/01/06 00:21:35;;;;;;;;;1.00;1.00;;;;;13.53;64.43;101730.16;5011475;28;45603;-63
2023/01/06 00:24:00;;;;;;;;;0.67;0.67;;;;;13.53;64.42;101731.09;4999884;28;45463;-63
2023/01/06 00:26:26;;;;;;;;;0.00;0.00;;;;;13.47;64.55;101730.88;5005945;28;46968;-65
2023/01/06 00:28:53;;;;;;;;;0.00;0.00;;;;;13.47;64.20;101740.72;5011545;28;45520;-64
2023/01/06 00:31:18;;;;;;;;;0.00;0.00;;;;;13.45;65.01;101738.00;5005288;28;45344;-64
2023/01/06 00:33:43;;;;;;;;;3.00;0.00;;;;;13.38;64.98;101728.84;5012091;28;46571;-63
2023/01/06 00:36:10;;;;;;;;;2.00;0.67;;;;;13.37;64.66;101727.00;5014352;28;45443;-63
2023/01/06 00:38:36;;;;;;;;;1.00;1.00;;;;;13.42;65.05;101735.22;5001099;28;45534;-64
2023/01/06 00:42:02;;;;;;;;;1.00;1.00;;;;;13.40;65.24;101743.22;5005086;28;45475;-63
2023/01/06 00:43:51;;;;;;;;;0.00;0.00;;;;;13.42;65.28;101744.16;5013967;28;46353;-63
2023/01/06 00:46:16;;;;;;;;;4.33;3.00;;;;;13.32;65.12;101728.66;5013743;28;45269;-64
2023/01/06 00:48:41;;;;;;;;;0.00;0.00;;;;;13.39;65.25;101730.66;4992370;28;45828;-64
2023/01/06 00:51:07;;;;;;;;;1.33;1.33;;;;;13.45;64.81;101738.91;5008648;28;45562;-65
2023/01/06 00:53:32;;;;;;;;;0.00;0.00;;;;;13.46;65.37;101734.41;5007893;28;46117;-64
2023/01/06 00:56:01;;;;;;;;;0.00;0.00;;;;;13.44;64.75;101738.84;4993966;28;45637;-65
2023/01/06 00:58:32;;;;;;;;;0.00;0.00;;;;;13.42;64.76;101737.91;5013724;28;45401;-64
2023/01/06 01:00:57;;;;;;;;;1.00;1.00;;;;;13.44;65.34;101739.75;5020879;28;45412;-64
2023/01/06 01:03:23;;;;;;;;;3.67;2.33;;;;;13.43;65.55;101748.69;5020339;28;45491;-65
2023/01/06 01:05:48;;;;;;;;;1.00;1.00;;;;;13.38;65.12;101744.00;5000846;28;45428;-64
2023/01/06 01:08:14;;;;;;;;;3.00;1.00;;;;;13.42;65.74;101746.84;5013975;28;45470;-65
2023/01/06 01:10:39;;;;;;;;;2.00;2.00;;;;;13.44;65.48;101747.78;5009641;28;45644;-65
2023/01/06 01:13:04;;;;;;;;;0.00;0.00;;;;;13.43;65.21;101746.00;5013561;28;46210;-65
2023/01/06 01:15:30;;;;;;;;;0.67;0.00;;;;;13.42;65.87;101741.47;4999176;28;45301;-65
2023/01/06 01:17:55;;;;;;;;;0.00;0.00;;;;;13.40;66.44;101737.84;5006402;28;45583;-65
2023/01/06 01:20:21;;;;;;;;;0.00;0.00;;;;;13.36;66.75;101735.91;5014444;28;45552;-65
2023/01/06 01:22:46;;;;;;;;;4.00;1.00;;;;;13.39;66.26;101733.31;5013873;28;45697;-65
2023/01/06 01:25:11;;;;;;;;;1.00;1.00;;;;;13.34;66.72;101734.97;5013548;28;45234;-63
2023/01/06 01:27:37;;;;;;;;;1.00;0.00;;;;;13.36;66.43;101724.28;5011010;28;45350;-65
2023/01/06 01:30:02;;;;;;;;;0.00;0.00;;;;;13.24;65.98;101704.22;5013928;28;45329;-63
2023/01/06 01:32:28;;;;;;;;;1.00;0.00;;;;;13.28;67.13;101730.28;4995340;28;47097;-63
2023/01/06 01:34:53;;;;;;;;;0.00;0.00;;;;;13.19;67.25;101721.94;4999887;28;45687;-64
2023/01/06 01:37:18;;;;;;;;;0.00;0.00;;;;;13.21;66.97;101722.00;5009690;28;54512;-64
2023/01/06 01:39:44;;;;;;;;;0.00;0.00;;;;;13.20;67.41;101709.44;5013491;28;45491;-65
2023/01/06 01:42:17;;;;;;;;;1.67;1.00;;;;;13.23;67.12;101722.94;5013087;28;46898;-64
2023/01/06 01:44:59;;;;;;;;;0.67;0.67;;;;;13.18;67.62;101722.84;5001068;28;45340;-63
2023/01/06 01:47:36;;;;;;;;;1.00;0.00;;;;;13.16;67.73;101720.94;5010045;28;45482;-64
2023/01/06 01:50:16;;;;;;;;;0.00;0.00;;;;;13.06;67.51;101695.59;5010582;28;45511;-64
2023/01/06 01:52:44;;;;;;;;;1.00;0.00;;;;;13.11;67.87;101702.00;5006524;28;45456;-65
2023/01/06 01:55:11;;;;;;;;;1.00;1.00;;;;;13.08;68.15;101710.91;5007340;28;45420;-64
2023/01/06 01:57:43;;;;;;;;;0.00;0.00;;;;;13.08;68.26;101710.91;5006392;28;45449;-64
2023/01/06 02:00:09;;;;;;;;;0.00;0.00;;;;;13.05;68.49;101704.50;5013288;28;45494;-64
2023/01/06 02:02:34;;;;;;;;;0.00;0.00;;;;;13.11;68.40;101715.44;5011425;28;46286;-64
2023/01/06 02:05:01;;;;;;;;;1.00;1.00;;;;;13.11;68.11;101717.22;5012803;28;45404;-64
2023/01/06 02:07:27;;;;;;;;;0.00;0.00;;;;;13.10;67.95;101708.25;5002754;28;45566;-63
2023/01/06 02:10:04;;;;;;;;;2.67;1.33;;;;;13.11;68.33;101714.53;5012252;28;45528;-63
2023/01/06 02:12:30;;;;;;;;;1.00;1.00;;;;;13.04;67.93;101691.97;5002597;28;45396;-64
2023/01/06 02:14:55;;;;;;;;;4.00;3.00;;;;;13.11;67.46;101704.69;5015362;28;45521;-65
2023/01/06 02:18:05;;;;;;;;;2.00;0.00;;;;;13.12;67.94;101708.31;5008978;28;45514;-64
2023/01/06 02:21:05;;;;;;;;;2.00;0.00;;;;;13.12;67.41;101706.53;4931076;28;45557;-64
2023/01/06 02:24:05;;;;;;;;;0.33;0.33;;;;;13.12;67.50;101693.13;4927498;28;46417;-64
2023/01/06 02:26:36;;;;;;;;;0.00;0.00;;;;;13.14;67.01;101711.94;4883894;28;45534;-64
2023/01/06 02:29:07;;;;;;;;;0.00;0.00;;;;;13.12;67.42;101716.34;4973304;28;45544;-64
2023/01/06 02:31:51;;;;;;;;;0.00;0.00;;;;;13.08;67.35;101704.59;5013488;28;45356;-65
2023/01/06 02:34:40;;;;;;;;;0.00;0.00;;;;;13.04;67.67;101702.69;5003612;28;45688;-64
2023/01/06 02:37:21;;;;;;;;;0.00;0.00;;;;;13.04;67.18;101706.28;5015891;28;45458;-63
2023/01/06 02:39:56;;;;;;;;;0.00;0.00;;;;;13.07;67.83;101702.78;5015897;28;45512;-64
2023/01/06 02:42:32;;;;;;;;;0.00;0.00;;;;;13.04;68.12;101703.59;5012081;28;45683;-65
2023/01/06 02:45:03;;;;;;;;;0.00;0.00;;;;;13.01;68.08;101700.81;5015699;28;46171;-64
2023/01/06 02:48:03;;;;;;;;;0.67;0.00;;;;;12.99;68.93;101689.13;4998014;28;45393;-63
2023/01/06 02:50:55;;;;;;;;;0.00;0.00;;;;;12.98;69.16;101692.66;4997205;28;45558;-64
2023/01/06 02:54:09;;;;;;;;;0.00;0.00;;;;;13.00;68.72;101687.34;4997381;28;45281;-63
2023/01/06 02:56:41;;;;;;;;;0.00;0.00;;;;;12.97;69.57;101684.56;4997289;28;45470;-64
2023/01/06 02:59:37;;;;;;;;;0.00;0.00;;;;;12.97;69.20;101682.81;5014464;28;45781;-64
2023/01/06 03:02:03;;;;;;;;;0.00;0.00;;;;;12.93;69.51;101663.88;5009547;28;45390;-64
2023/01/06 03:04:35;;;;;;;;;0.00;0.00;;;;;12.93;68.59;101670.16;5015869;28;45385;-64
2023/01/06 03:07:02;;;;;;;;;0.00;0.00;;;;;12.93;68.92;101661.22;5012637;28;46109;-64
2023/01/06 03:09:33;;;;;;;;;0.00;0.00;;;;;12.87;68.94;101667.31;5006048;28;45546;-65
2023/01/06 03:12:19;;;;;;;;;0.00;0.00;;;;;12.83;69.23;101652.84;5015542;28;45328;-65
2023/01/06 03:14:49;;;;;;;;;0.00;0.00;;;;;12.74;69.27;101636.50;4998090;28;45622;-64
2023/01/06 03:17:15;;;;;;;;;0.00;0.00;;;;;12.88;68.96;101664.63;5012130;28;47033;-63
2023/01/06 03:19:43;;;;;;;;;2.33;1.00;;;;;12.82;68.59;101653.75;5012868;28;45464;-64
2023/01/06 03:22:10;;;;;;;;;0.00;0.00;;;;;12.82;68.77;101659.09;5015447;28;45526;-64
2023/01/06 03:24:37;;;;;;;;;2.00;0.00;;;;;12.90;69.24;101667.38;5010265;28;45485;-64
2023/01/06 03:27:04;;;;;;;;;1.33;0.00;;;;;12.90;68.49;101670.06;5010237;28;46198;-64
2023/01/06 03:29:29;;;;;;;;;0.67;0.00;;;;;12.85;68.47;101660.94;5015169;28;45367;-63
2023/01/06 03:32:18;;;;;;;;;0.00;0.00;;;;;12.50;68.93;101607.13;5015379;28;45414;-65
2023/01/06 03:35:16;;;;;;;;;1.00;1.00;;;;;12.87;68.09;101661.94;4979983;28;45511;-64
2023/01/06 03:38:03;;;;;;;;;1.00;0.00;;;;;12.87;69.21;101660.16;4995472;28;46588;-64
2023/01/06 03:40:34;;;;;;;;;0.00;0.00;;;;;12.55;68.83;101600.13;5013220;28;45296;-64
2023/01/06 03:43:23;;;;;;;;;1.00;0.00;;;;;12.86;69.20;101647.59;5015248;28;45587;-64
2023/01/06 03:45:59;;;;;;;;;0.00;0.00;;;;;12.90;68.44;101652.22;5002860;28;45402;-63
2023/01/06 03:48:46;;;;;;;;;0.67;0.00;;;;;12.90;68.19;101651.28;5013286;28;47103;-64
2023/01/06 03:51:36;;;;;;;;;2.00;0.00;;;;;12.93;69.08;101645.13;5015129;28;45655;-62
2023/01/06 03:54:27;;;;;;;;;1.00;0.00;;;;;12.92;68.72;101654.94;5012132;28;45399;-64
2023/01/06 03:57:04;;;;;;;;;0.33;0.33;;;;;12.91;68.69;101648.66;5003718;28;45503;-64
2023/01/06 03:59:33;;;;;;;;;0.33;0.33;;;;;12.79;68.79;101629.50;5014423;28;47336;-63
2023/01/06 04:01:59;;;;;;;;;0.00;0.00;;;;;12.87;69.63;101641.38;4991564;28;45576;-63
2023/01/06 04:04:25;;;;;;;;;0.00;0.00;;;;;12.83;68.60;101623.34;5012719;28;45419;-64
2023/01/06 04:06:51;;;;;;;;;0.00;0.00;;;;;12.88;69.34;101636.91;5010936;28;45505;-64
2023/01/06 04:09:17;;;;;;;;;0.00;0.00;;;;;12.87;68.88;101638.69;5014139;28;63247;-63
2023/01/06 04:14:26;;;;;;;;;1.00;1.00;;;;;12.73;69.89;101615.88;5015035;28;45461;-65
2023/01/06 04:16:51;;;;;;;;;1.00;0.00;;;;;12.83;69.67;101630.50;5016316;28;45403;-65
2023/01/06 04:19:17;;;;;;;;;0.00;0.00;;;;;12.79;69.29;101625.91;5014547;28;45459;-63
2023/01/06 04:21:42;;;;;;;;;0.00;0.00;;;;;12.88;68.96;101636.91;5014521;28;45372;-63
2023/01/06 04:24:08;;;;;;;;;0.00;0.00;;;;;12.87;69.87;101635.13;5014023;28;48230;-63
2023/01/06 04:26:33;;;;;;;;;0.00;0.00;;;;;12.90;69.25;101629.81;5018243;28;45534;-64
2023/01/06 04:29:00;;;;;;;;;0.00;0.00;;;;;12.84;69.02;101626.97;5007743;28;46924;-64
2023/01/06 04:31:25;;;;;;;;;1.00;0.00;;;;;12.98;69.13;101647.06;4994753;28;45405;-65
2023/01/06 04:33:50;;;;;;;;;0.00;0.00;;;;;12.99;69.04;101646.22;5014861;28;45537;-65
2023/01/06 04:36:16;;;;;;;;;0.00;0.00;;;;;13.00;68.39;101645.38;5014462;28;45512;-63
2023/01/06 04:38:41;;;;;;;;;0.00;0.00;;;;;13.01;68.68;101641.78;5014342;28;47132;-63
2023/01/06 04:41:07;;;;;;;;;1.00;0.00;;;;;12.97;68.73;101626.47;5013958;28;45411;-64
2023/01/06 04:43:32;;;;;;;;;0.00;0.00;;;;;12.98;68.26;101625.59;5005711;28;55098;-64
2023/01/06 04:45:58;;;;;;;;;0.00;0.00;;;;;12.94;68.30;101615.66;5014535;28;45352;-66
2023/01/06 04:48:23;;;;;;;;;0.00;0.00;;;;;12.94;68.86;101621.03;5010103;28;46222;-64
2023/01/06 04:50:49;;;;;;;;;0.00;0.00;;;;;12.70;68.94;101587.22;5004932;28;45486;-64
2023/01/06 04:53:14;;;;;;;;;0.00;0.00;;;;;12.92;69.06;101614.72;5013985;28;45476;-63
2023/01/06 04:55:40;;;;;;;;;0.00;0.00;;;;;12.94;68.91;101618.34;5014233;28;45364;-64
2023/01/06 04:58:06;;;;;;;;;0.00;0.00;;;;;12.90;69.11;101611.97;5002036;28;46237;-64
2023/01/06 05:00:32;;;;;;;;;0.00;0.00;;;;;12.91;69.58;101604.81;5003779;28;45447;-65
2023/01/06 05:02:57;;;;;;;;;0.00;0.00;;;;;12.94;69.29;101601.34;4991937;28;45348;-63
2023/01/06 05:05:22;;;;;;;;;0.00;0.00;;;;;12.97;69.03;101605.03;5014563;28;45511;-65
2023/01/06 05:07:47;;;;;;;;;0.00;0.00;;;;;12.97;68.89;101602.34;5011838;28;62133;-65
2023/01/06 05:10:13;;;;;;;;;0.00;0.00;;;;;13.05;69.25;101599.88;4988702;28;47321;-64
2023/01/06 05:12:38;;;;;;;;;0.00;0.00;;;;;13.01;68.98;101604.25;5011478;28;45264;-63
2023/01/06 05:15:05;;;;;;;;;0.00;0.00;;;;;12.99;69.05;101602.38;5014047;28;45658;-64
2023/01/06 05:17:30;;;;;;;;;0.00;0.00;;;;;13.00;68.93;101602.44;5011608;28;48518;-64
2023/01/06 05:19:55;;;;;;;;;0.00;0.00;;;;;13.00;69.51;101607.81;5001240;28;45786;-64
2023/01/06 05:22:21;;;;;;;;;1.00;1.00;;;;;13.03;68.87;101607.91;5011953;28;50527;-66
2023/01/06 05:24:46;;;;;;;;;0.00;0.00;;;;;13.00;69.02;101610.50;5015642;28;45655;-64
2023/01/06 05:27:12;;;;;;;;;1.33;0.00;;;;;13.04;69.16;101612.38;5013047;28;49124;-65
2023/01/06 05:29:38;;;;;;;;;0.00;0.00;;;;;13.05;68.81;101616.91;5010256;28;45511;-64
2023/01/06 05:32:03;;;;;;;;;0.00;0.00;;;;;13.07;69.66;101625.91;5011201;28;45646;-65
2023/01/06 05:34:29;;;;;;;;;0.00;0.00;;;;;13.09;69.78;101625.94;5009247;28;45501;-64
2023/01/06 05:36:55;;;;;;;;;1.67;1.67;;;;;13.04;69.42;101611.47;5013037;28;45722;-63
2023/01/06 05:39:21;;;;;;;;;2.00;1.33;;;;;13.09;69.56;101625.94;5013432;28;45367;-65
2023/01/06 05:41:46;;;;;;;;;0.00;0.00;;;;;13.12;69.55;101623.34;5013434;28;45487;-64
2023/01/06 05:44:11;;;;;;;;;0.00;0.00;;;;;13.12;69.80;101627.81;5013813;28;45442;-64
2023/01/06 05:46:37;;;;;;;;;0.00;0.00;;;;;13.11;69.73;101623.31;5004177;28;46301;-64
2023/01/06 05:49:02;;;;;;;;;0.00;0.00;;;;;13.09;69.53;101634.88;5013182;28;45319;-64
2023/01/06 05:51:28;;;;;;;;;1.00;1.00;;;;;13.10;69.27;101638.50;5005608;28;46012;-64
2023/01/06 05:53:53;;;;;;;;;0.00;0.00;;;;;13.12;69.13;101646.59;5003142;28;45492;-64
2023/01/06 05:56:20;;;;;;;;;1.00;0.00;;;;;13.08;69.83;101634.84;5012601;28;51372;-64
2023/01/06 05:58:48;;;;;;;;;0.00;0.00;;;;;13.12;69.83;101627.81;5012984;28;45355;-63
2023/01/06 06:01:27;;;;;;;;;1.00;1.00;;;;;13.10;69.52;101633.13;5013013;28;45607;-65
2023/01/06 06:03:54;;;;;;;;;3.00;1.67;;;;;13.11;69.33;101628.66;5002898;28;45348;-63
2023/01/06 06:06:22;;;;;;;;;1.67;1.00;;;;;13.05;69.74;101624.94;5010436;28;46158;-63
2023/01/06 06:08:48;;;;;;;;;1.00;1.00;;;;;13.05;69.96;101613.28;4994483;28;45656;-65
2023/01/06 06:11:15;;;;;;;;;0.00;0.00;;;;;13.11;69.86;101621.53;4994543;28;45548;-65
2023/01/06 06:13:49;;;;;;;;;2.00;0.00;;;;;13.16;69.36;101622.56;5005249;28;45499;-64
2023/01/06 06:16:16;;;;;;;;;0.33;0.33;;;;;13.18;69.33;101627.97;4994038;28;47372;-64
2023/01/06 06:18:42;;;;;;;;;0.67;0.67;;;;;13.20;69.63;101631.59;5012589;28;45250;-64
2023/01/06 06:21:14;;;;;;;;;4.67;3.00;;;;;13.23;69.65;101639.75;5011082;28;45694;-64
2023/01/06 06:23:40;;;;;;;;;1.00;0.00;;;;;13.21;69.30;101628.06;5010304;28;45316;-63
2023/01/06 06:26:06;;;;;;;;;3.00;1.00;;;;;13.22;68.63;101627.22;5008418;28;46242;-64
2023/01/06 06:28:33;;;;;;;;;1.00;1.00;;;;;13.21;69.05;101631.66;5015353;28;45106;-65
2023/01/06 06:31:14;;;;;;;;;5.00;2.00;;;;;13.20;68.84;101645.97;5015671;28;45576;-64
2023/01/06 06:33:40;;;;;;;;;1.67;1.67;;;;;13.19;69.10;101637.88;4999735;28;45350;-65
2023/01/06 06:36:10;;;;;;;;;0.00;0.00;;;;;13.20;68.60;101643.28;5002919;28;46760;-66
2023/01/06 06:38:37;;;;;;;;;3.00;3.00;;;;;13.10;68.69;101614.34;5010839;28;45742;-65
2023/01/06 06:41:02;;;;;;;;;1.00;1.00;;;;;13.22;68.56;101635.28;5013000;28;45407;-65
2023/01/06 06:43:28;;;;;;;;;2.00;2.00;;;;;13.24;69.05;101638.91;5030086;28;45416;-65
2023/01/06 06:45:54;;;;;;;;;3.00;1.00;;;;;13.24;69.02;101638.91;5023113;28;45492;-66
2023/01/06 06:48:19;;;;;;;;;3.00;1.00;;;;;13.25;68.87;101636.28;5020678;28;45212;-64
2023/01/06 06:50:45;;;;;;;;;1.00;1.00;;;;;13.26;68.59;101634.47;5029913;28;45311;-65
2023/01/06 06:53:10;;;;;;;;;0.67;0.67;;;;;13.22;68.81;101632.59;5016885;28;45245;-66
2023/01/06 06:55:35;;;;;;;;;0.00;0.00;;;;;13.27;68.71;101647.06;5019969;28;45398;-63
2023/01/06 06:58:01;;;;;;;;;1.33;1.33;;;;;13.13;68.58;101617.09;5025340;28;45271;-65
2023/01/06 07:00:26;;;;;;;;;0.00;0.00;;;;;13.27;69.05;101655.09;5011094;28;45165;-65
2023/01/06 07:02:51;;;;;;;;;1.00;1.00;;;;;13.26;68.42;101651.53;5027267;28;44986;-65
2023/01/06 07:05:17;;;;;;;;;1.67;0.67;;;;;13.26;68.72;101654.19;5015589;28;45806;-66
2023/01/06 07:07:43;;;;;;;;;2.00;2.00;;;;;13.24;69.03;101647.84;5019264;28;45247;-65
2023/01/06 07:10:15;;;;;;;;;7.00;6.00;;;;;13.24;68.81;101647.84;5027328;28;45101;-64
2023/01/06 07:12:41;;;;;;;;;1.33;1.00;;;;;13.21;68.96;101649.53;5030990;28;45366;-63
2023/01/06 07:15:07;;;;;;;;;3.00;1.00;;;;;13.21;69.52;101654.91;5015067;28;47175;-65
2023/01/06 07:17:32;;;;;;;;;2.00;2.00;;;;;13.21;69.35;101666.53;5018329;28;46306;-64
2023/01/06 07:19:58;;;;;;;;;7.00;4.67;;;;;13.21;69.67;101674.59;5008509;28;45496;-63
2023/01/06 07:22:23;;;;;;;;;5.00;3.00;;;;;13.23;69.42;101677.31;5008271;28;51291;-65
2023/01/06 07:24:48;;;;;;;;;3.33;1.00;;;;;13.24;69.15;101669.31;5000019;28;46479;-65
2023/01/06 07:27:14;;;;;;;;;6.00;3.00;;;;;13.20;69.58;101656.69;5002680;28;45417;-65
2023/01/06 07:29:39;;;;;;;;;2.00;2.00;;;;;13.21;69.49;101654.91;5014863;28;45471;-66
2023/01/06 07:32:04;;;;;;;;;2.00;2.00;;;;;13.21;69.50;101660.28;5006232;28;45647;-65
2023/01/06 07:34:30;;;;;;;;;0.67;0.33;;;;;13.20;69.18;101651.31;4997267;28;46869;-66
2023/01/06 07:36:58;;;;;;;;;4.67;3.00;;;;;13.29;69.18;101653.38;5004019;28;45641;-66
2023/01/06 07:39:23;;;;;;;;;1.67;1.67;;;;;13.28;68.97;101655.16;5006045;28;45521;-66
2023/01/06 07:41:49;;;;;;;;;2.00;2.00;;;;;13.24;69.61;101638.91;5014608;28;45383;-65
2023/01/06 07:44:14;;;;;;;;;4.67;2.00;;;;;13.15;69.15;101619.84;4996837;28;47528;-66
2023/01/06 07:46:39;;;;;;;;;1.67;1.00;;;;;13.36;69.61;101658.06;5009479;28;45689;-65
2023/01/06 07:49:05;;;;;;;;;1.67;1.00;;;;;13.35;68.97;101655.38;4987595;28;45797;-65
2023/01/06 07:51:30;;;;;;;;;4.00;3.33;;;;;13.32;69.33;101658.88;5011690;28;47723;-65
2023/01/06 07:53:55;;;;;;;;;1.00;1.00;;;;;13.38;69.35;101674.22;5003905;28;45392;-64
2023/01/06 07:56:22;;;;;;;;;4.00;4.00;;;;;13.39;69.26;101668.00;5008785;28;45710;-65
2023/01/06 07:58:48;;;;;;;;;3.00;3.00;;;;;13.36;69.32;101663.44;5013544;28;45406;-65
2023/01/06 08:01:13;;;;;;;;;3.00;3.00;;;;;13.37;69.23;101661.69;5014456;28;45754;-64
2023/01/06 08:03:38;;;;;;;;;4.00;3.00;;;;;13.41;69.53;101675.25;5004611;28;46247;-64
2023/01/06 08:06:11;;;;;;;;;1.00;1.00;;;;;13.40;68.98;101667.16;4999519;28;45535;-64
2023/01/06 08:08:38;;;;;;;;;1.00;1.00;;;;;13.43;68.90;101678.00;5013813;28;45772;-63
2023/01/06 08:11:05;;;;;;;;;3.33;3.00;;;;;13.45;69.07;101661.03;5002430;28;45432;-64
2023/01/06 08:13:30;;;;;;;;;7.00;5.67;;;;;13.47;68.98;101666.47;5008172;28;46582;-64
2023/01/06 08:15:55;;;;;;;;;4.00;1.00;;;;;13.43;69.28;101654.72;5001691;28;45507;-64
2023/01/06 08:18:21;;;;;;;;;4.00;4.00;;;;;13.43;68.77;101652.03;5013476;28;45554;-64
2023/01/06 08:20:46;;;;;;;;;2.67;2.67;;;;;13.42;68.84;101665.41;5001613;28;45653;-66
2023/01/06 08:23:12;;;;;;;;;1.00;1.00;;;;;13.45;68.68;101666.41;5008396;28;46419;-64
2023/01/06 08:25:37;;;;;;;;;1.00;1.00;;;;;13.44;68.84;101671.72;5013563;28;45377;-64
2023/01/06 08:28:02;;;;;;;;;4.00;2.33;;;;;13.48;68.57;101668.28;5012431;28;45483;-65
2023/01/06 08:30:28;;;;;;;;;3.00;3.00;;;;;13.50;68.85;101665.66;4993693;28;45315;-63
2023/01/06 08:32:58;;;;;;;;;6.00;5.00;;;;;13.51;68.36;101672.81;4990448;28;46959;-64
2023/01/06 08:35:24;;;;;;;;;2.00;2.00;;;;;13.49;68.74;101670.09;5010383;28;45461;-65
2023/01/06 08:37:49;;;;;;;;;1.33;1.33;;;;;13.56;68.91;101679.22;5006243;28;46746;-64
2023/01/06 08:40:15;;;;;;;;;5.00;3.00;;;;;13.45;68.88;101666.41;4987896;28;46097;-64
2023/01/06 08:42:40;;;;;;;;;5.00;3.00;;;;;13.55;68.47;101672.06;4993211;28;48419;-65
2023/01/06 08:45:06;;;;;;;;;1.00;1.00;;;;;13.57;68.76;101683.75;4996936;28;45475;-64
2023/01/06 08:47:32;;;;;;;;;3.00;2.00;;;;;13.54;68.76;101678.28;5010497;28;45509;-65
2023/01/06 08:49:57;;;;;;;;;1.00;0.00;;;;;13.55;69.07;101681.00;4995149;28;45457;-65
2023/01/06 08:52:23;;;;;;;;;1.33;1.33;;;;;13.55;69.02;101686.38;5011790;28;46044;-65
2023/01/06 08:54:48;;;;;;;;;4.00;3.00;;;;;13.45;68.94;101658.34;5008563;28;45454;-67
2023/01/06 08:57:15;;;;;;;;;6.00;3.33;;;;;13.55;68.60;101669.38;5012623;28;45651;-63
2023/01/06 08:59:40;;;;;;;;;4.00;4.00;;;;;13.55;68.52;101675.66;5013895;28;45526;-66
2023/01/06 09:02:06;;;;;;;;;2.00;2.00;;;;;13.58;68.59;101685.59;5002939;28;46150;-65
2023/01/06 09:04:32;;;;;;;;;3.00;3.00;;;;;13.56;68.53;101684.59;4983650;28;45600;-64
2023/01/06 09:06:57;;;;;;;;;2.00;2.00;;;;;13.55;68.88;101685.50;5001916;28;47966;-66
2023/01/06 09:09:23;;;;;;;;;1.00;1.00;;;;;13.59;68.86;101687.38;5004247;28;45509;-64
2023/01/06 09:11:48;;;;;;;;;1.00;1.00;;;;;13.47;68.24;101665.56;5005795;28;45559;-66
2023/01/06 09:14:13;;;;;;;;;3.00;2.00;;;;;13.44;68.40;101659.22;5013146;28;45298;-65
2023/01/06 09:16:39;;;;;;;;;4.00;4.00;;;;;13.54;68.89;101665.75;5017233;28;45301;-66
2023/01/06 09:19:04;;;;;;;;;3.00;2.67;;;;;13.59;68.58;101682.91;4996545;28;45428;-66
2023/01/06 09:21:30;;;;;;;;;3.00;2.00;;;;;13.59;69.00;101688.28;5007708;28;46125;-67
2023/01/06 09:23:56;;;;;;;;;2.00;2.00;;;;;13.58;69.30;101686.47;4982661;28;45640;-65
2023/01/06 09:26:21;;;;;;;;;2.33;2.33;;;;;13.56;69.28;101689.97;5013019;28;45532;-64
2023/01/06 09:28:47;;;;;;;;;7.00;6.00;;;;;13.56;69.45;101688.22;5013824;28;45478;-65
2023/01/06 09:31:12;;;;;;;;;6.33;6.33;;;;;13.54;69.71;101689.91;4995542;28;46992;-66
2023/01/06 09:33:38;;;;;;;;;4.33;2.67;;;;;13.55;69.73;101699.81;5015530;28;45347;-63
2023/01/06 09:36:03;;;;;;;;;3.00;3.00;;;;;13.56;69.65;101692.66;5004512;28;45361;-64
2023/01/06 09:38:29;;;;;;;;;7.00;5.67;;;;;13.57;69.23;101691.81;5002079;28;46367;-65
2023/01/06 09:41:24;;;;;;;;;3.33;3.33;;;;;13.56;69.54;101689.97;5008505;28;47662;-66
2023/01/06 09:43:58;;;;;;;;;7.33;4.00;;;;;13.51;69.74;101683.56;5002720;28;45517;-67
2023/01/06 09:46:29;;;;;;;;;4.67;3.67;;;;;13.45;69.70;101670.88;5012264;28;45460;-65
2023/01/06 09:49:07;;;;;;;;;3.67;3.00;;;;;13.55;69.29;101688.16;5008857;28;45533;-67
2023/01/06 09:51:34;;;;;;;;;4.00;4.00;;;;;13.59;69.38;101692.75;4993761;28;45420;-65
2023/01/06 09:54:14;;;;;;;;;8.67;7.00;;;;;13.63;69.39;101684.84;5008727;28;45502;-65
2023/01/06 09:56:44;;;;;;;;;3.67;2.00;;;;;13.67;69.39;101692.97;5009381;28;45350;-65
2023/01/06 09:59:33;;;;;;;;;5.67;4.33;;;;;13.71;69.21;101686.81;5010953;28;45592;-64
2023/01/06 10:01:59;;;;;;;;;5.33;4.00;;;;;13.71;68.66;101693.13;5011495;28;45293;-65
2023/01/06 10:04:27;;;;;;;;;4.33;3.33;;;;;13.80;68.94;101697.84;5004611;28;45619;-63
2023/01/06 10:07:04;;;;;;;;;2.00;2.00;;;;;13.76;68.79;101677.09;5012208;28;45475;-66
2023/01/06 10:09:54;;;;;;;;;6.33;4.67;;;;;13.85;68.58;101695.28;5002285;28;45436;-65
2023/01/06 10:12:31;;;;;;;;;6.00;5.00;;;;;13.90;68.33;101709.75;5022950;28;45728;-63
2023/01/06 10:15:12;;;;;;;;;2.33;2.00;;;;;13.90;68.78;101699.91;5000324;28;45714;-64
2023/01/06 10:17:54;;;;;;;;;3.00;3.00;;;;;13.89;68.28;101702.56;4979210;28;45309;-63
2023/01/06 10:20:35;;;;;;;;;3.00;3.00;;;;;13.88;68.57;101700.75;5007551;28;45872;-64
2023/01/06 10:23:23;;;;;;;;;6.00;3.00;;;;;13.89;68.35;101700.78;5008464;28;45651;-64
2023/01/06 10:26:19;;;;;;;;;4.33;4.33;;;;;13.86;68.51;101705.13;5009287;28;45592;-63
2023/01/06 10:28:52;;;;;;;;;4.33;4.33;;;;;13.90;68.42;101709.75;4996467;28;45463;-63
2023/01/06 10:31:26;;;;;;;;;5.67;4.00;;;;;13.84;68.77;101707.78;5012686;28;45475;-64
2023/01/06 10:33:54;;;;;;;;;8.33;7.00;;;;;13.88;68.61;101698.97;5010454;28;46377;-64
2023/01/06 10:36:39;;;;;;;;;5.00;3.67;;;;;13.90;68.71;101707.06;5014893;28;45435;-65
2023/01/06 10:39:12;;;;;;;;;6.00;6.00;;;;;13.88;68.67;101698.97;5004087;28;45413;-65
2023/01/06 10:41:40;;;;;;;;;6.33;6.00;;;;;13.89;68.37;101703.47;4995597;28;45613;-65
2023/01/06 10:44:08;;;;;;;;;8.00;6.00;;;;;13.92;68.15;101700.84;5000483;28;45436;-64
2023/01/06 10:46:35;;;;;;;;;4.00;4.00;;;;;13.87;68.66;101706.97;5006493;28;45659;-65
2023/01/06 10:49:02;;;;;;;;;8.00;4.00;;;;;13.87;68.86;101704.28;5005849;28;45511;-65
2023/01/06 10:51:36;;;;;;;;;5.00;4.00;;;;;13.89;68.47;101692.75;5008751;28;47938;-65
2023/01/06 10:54:07;;;;;;;;;4.00;4.00;;;;;13.97;68.33;101699.22;4998404;28;46522;-65
2023/01/06 10:56:35;;;;;;;;;9.00;8.00;;;;;14.04;68.14;101696.69;5008339;28;45911;-65
2023/01/06 10:59:07;;;;;;;;;12.00;7.67;;;;;14.00;68.03;101680.47;5002730;28;45419;-63
2023/01/06 11:01:32;;;;;;;;;8.00;8.00;;;;;14.03;68.06;101678.78;5006859;28;45490;-64
2023/01/06 11:04:12;;;;;;;;;5.33;4.00;;;;;14.05;68.16;101675.22;5005747;28;45828;-65
2023/01/06 11:06:44;;;;;;;;;7.67;7.00;;;;;14.10;67.76;101676.25;4998955;28;45522;-63
2023/01/06 11:09:46;;;;;;;;;4.00;4.00;;;;;14.12;67.81;101679.94;4999813;28;45452;-65
2023/01/06 11:12:21;;;;;;;;;6.33;6.00;;;;;14.12;67.61;101679.94;5010668;28;45426;-66
2023/01/06 11:15:06;;;;;;;;;8.00;5.00;;;;;14.09;67.75;101673.53;5008996;28;45423;-64
2023/01/06 11:17:32;;;;;;;;;10.00;7.00;;;;;14.08;67.71;101675.31;5005994;28;45506;-63
2023/01/06 11:20:24;;;;;;;;;9.33;7.67;;;;;14.09;68.10;101665.47;5008241;28;45554;-63
2023/01/06 11:22:49;;;;;;;;;8.00;8.00;;;;;14.11;67.96;101659.28;5000886;28;45692;-66
2023/01/06 11:25:29;;;;;;;;;10.00;8.00;;;;;14.10;68.04;101664.63;4983388;28;45912;-64
2023/01/06 11:28:18;;;;;;;;;10.00;8.00;;;;;14.12;68.02;101655.75;5008281;28;45624;-65
2023/01/06 11:30:43;;;;;;;;;6.67;5.67;;;;;14.14;67.90;101661.16;5004525;28;45623;-63
2023/01/06 11:33:30;;;;;;;;;6.33;6.00;;;;;14.17;67.94;101658.53;4998742;28;45671;-64
2023/01/06 11:35:57;;;;;;;;;4.00;4.00;;;;;14.09;67.83;101636.84;5000677;28;46489;-65
2023/01/06 11:38:23;;;;;;;;;6.67;5.00;;;;;14.24;68.18;101659.59;4994779;28;45724;-66
2023/01/06 11:40:51;;;;;;;;;6.67;6.67;;;;;14.26;67.69;101648.03;5009679;28;45572;-66